sensor_id;sensor_type;location;lat;lon;timestamp;pressure;altitude;pressure_sealevel;temperature;humidity
2401;BME280;1211;43.200;27.914;2023-04-27T00:00:59;100563.25;;;15.45;100.00
2401;BME280;1211;43.200;27.914;2023-04-27T00:03:26;100568.81;;;15.10;100.00
2401;BME280;1211;43.200;27.914;2023-04-27T00:05:54;100567.69;;;15.30;100.00
2401;BME280;1211;43.200;27.914;2023-04-27T00:08:21;100567.06;;;15.56;100.00
2401;BME280;1211;43.200;27.914;2023-04-27T00:10:48;100560.09;;;15.46;100.00
2401;BME280;1211;43.200;27.914;2023-04-27T00:13:15;100561.56;;;15.79;100.00
2401;BME280;1211;43.200;27.914;2023-04-27T00:15:41;100565.03;;;15.53;100.00
2401;BME280;1211;43.200;27.914;2023-04-27T00:18:09;100569.44;;;15.38;100.00
2401;BME280;1211;43.200;27.914;2023-04-27T00:20:36;100568.88;;;15.48;100.00
2401;BME280;1211;43.200;27.914;2023-04-27T00:23:04;100570.34;;;15.61;100.00
2401;BME280;1211;43.200;27.914;2023-04-27T00:25:31;100573.16;;;15.26;100.00
2401;BME280;1211;43.200;27.914;2023-04-27T00:27:58;100572.22;;;15.19;100.00
2401;BME280;1211;43.200;27.914;2023-04-27T00:30:25;100579.66;;;14.99;100.00
2401;BME280;1211;43.200;27.914;2023-04-27T00:32:51;100570.38;;;14.92;98.36
2401;BME280;1211;43.200;27.914;2023-04-27T00:35:18;100590.47;;;15.04;97.85
2401;BME280;1211;43.200;27.914;2023-04-27T00:37:45;100600.34;;;15.02;97.43
2401;BME280;1211;43.200;27.914;2023-04-27T00:40:13;100594.81;;;15.02;96.43
2401;BME280;1211;43.200;27.914;2023-04-27T00:42:40;100606.25;;;15.00;94.56
2401;BME280;1211;43.200;27.914;2023-04-27T00:45:07;100609.84;;;15.71;93.54
2401;BME280;1211;43.200;27.914;2023-04-27T00:47:34;100607.56;;;15.57;93.61
2401;BME280;1211;43.200;27.914;2023-04-27T00:50:01;100614.34;;;15.59;92.40
2401;BME280;1211;43.200;27.914;2023-04-27T00:52:30;100614.81;;;15.46;91.36
2401;BME280;1211;43.200;27.914;2023-04-27T00:54:57;100630.88;;;14.70;92.65
2401;BME280;1211;43.200;27.914;2023-04-27T00:57:25;100626.47;;;15.01;93.73
2401;BME280;1211;43.200;27.914;2023-04-27T01:00:08;100633.44;;;14.63;94.74
2401;BME280;1211;43.200;27.914;2023-04-27T01:02:35;100632.94;;;14.30;95.33
2401;BME280;1211;43.200;27.914;2023-04-27T01:05:02;100639.50;;;15.51;91.80
2401;BME280;1211;43.200;27.914;2023-04-27T01:07:29;100639.44;;;14.65;92.05
2401;BME280;1211;43.200;27.914;2023-04-27T01:09:55;100655.38;;;15.00;92.66
2401;BME280;1211;43.200;27.914;2023-04-27T01:12:22;100651.06;;;14.39;93.35
2401;BME280;1211;43.200;27.914;2023-04-27T01:14:50;100651.41;;;14.38;94.98
2401;BME280;1211;43.200;27.914;2023-04-27T01:17:17;100643.28;;;15.08;90.76
2401;BME280;1211;43.200;27.914;2023-04-27T01:19:44;100661.09;;;15.57;88.53
2401;BME280;1211;43.200;27.914;2023-04-27T01:22:10;100638.19;;;15.60;86.85
2401;BME280;1211;43.200;27.914;2023-04-27T01:24:40;100645.25;;;14.92;87.64
2401;BME280;1211;43.200;27.914;2023-04-27T01:27:07;100645.53;;;14.55;88.44
2401;BME280;1211;43.200;27.914;2023-04-27T01:29:34;100649.84;;;14.68;87.02
2401;BME280;1211;43.200;27.914;2023-04-27T01:32:01;100649.06;;;14.40;86.45
2401;BME280;1211;43.200;27.914;2023-04-27T01:34:27;100644.84;;;14.74;86.52
2401;BME280;1211;43.200;27.914;2023-04-27T01:36:54;100639.00;;;14.20;86.84
2401;BME280;1211;43.200;27.914;2023-04-27T01:39:21;100645.06;;;15.16;86.93
2401;BME280;1211;43.200;27.914;2023-04-27T01:41:49;100656.28;;;15.54;84.98
2401;BME280;1211;43.200;27.914;2023-04-27T01:44:16;100653.31;;;14.97;84.81
2401;BME280;1211;43.200;27.914;2023-04-27T01:46:44;100648.31;;;14.55;86.59
2401;BME280;1211;43.200;27.914;2023-04-27T01:49:11;100652.97;;;14.67;85.08
2401;BME280;1211;43.200;27.914;2023-04-27T01:51:38;100660.63;;;14.58;86.40
2401;BME280;1211;43.200;27.914;2023-04-27T01:54:04;100672.47;;;15.02;85.41
2401;BME280;1211;43.200;27.914;2023-04-27T01:56:31;100655.38;;;14.68;84.78
2401;BME280;1211;43.200;27.914;2023-04-27T01:58:59;100664.94;;;14.87;85.72
2401;BME280;1211;43.200;27.914;2023-04-27T02:01:26;100665.69;;;14.40;86.36
2401;BME280;1211;43.200;27.914;2023-04-27T02:03:53;100662.94;;;14.40;87.35
2401;BME280;1211;43.200;27.914;2023-04-27T02:06:19;100662.59;;;14.57;87.11
2401;BME280;1211;43.200;27.914;2023-04-27T02:08:46;100648.31;;;14.71;85.34
2401;BME280;1211;43.200;27.914;2023-04-27T02:11:13;100653.41;;;14.25;86.64
2401;BME280;1211;43.200;27.914;2023-04-27T02:13:39;100657.84;;;14.14;85.02
2401;BME280;1211;43.200;27.914;2023-04-27T02:16:07;100657.34;;;13.96;84.61
2401;BME280;1211;43.200;27.914;2023-04-27T02:18:34;100649.94;;;14.00;84.45
2401;BME280;1211;43.200;27.914;2023-04-27T02:21:06;100641.50;;;13.81;85.29
2401;BME280;1211;43.200;27.914;2023-04-27T02:23:33;100640.94;;;13.76;85.36
2401;BME280;1211;43.200;27.914;2023-04-27T02:26:00;100632.81;;;13.83;84.71
2401;BME280;1211;43.200;27.914;2023-04-27T02:28:26;100632.72;;;13.79;83.39
2401;BME280;1211;43.200;27.914;2023-04-27T02:30:53;100611.72;;;13.78;84.38
2401;BME280;1211;43.200;27.914;2023-04-27T02:33:21;100625.28;;;13.68;84.20
2401;BME280;1211;43.200;27.914;2023-04-27T02:35:48;100617.41;;;13.42;84.79
2401;BME280;1211;43.200;27.914;2023-04-27T02:38:14;100596.16;;;13.46;84.21
2401;BME280;1211;43.200;27.914;2023-04-27T02:40:41;100604.75;;;13.16;84.71
2401;BME280;1211;43.200;27.914;2023-04-27T02:43:08;100616.44;;;13.50;84.26
2401;BME280;1211;43.200;27.914;2023-04-27T02:45:35;100607.84;;;13.67;83.38
2401;BME280;1211;43.200;27.914;2023-04-27T02:48:02;100613.81;;;13.41;84.35
2401;BME280;1211;43.200;27.914;2023-04-27T02:50:30;100618.31;;;13.46;84.29
2401;BME280;1211;43.200;27.914;2023-04-27T02:52:57;100604.72;;;13.41;83.68
2401;BME280;1211;43.200;27.914;2023-04-27T02:55:24;100592.03;;;13.40;84.05
2401;BME280;1211;43.200;27.914;2023-04-27T02:57:51;100606.44;;;13.45;84.72
2401;BME280;1211;43.200;27.914;2023-04-27T03:00:18;100613.38;;;13.27;85.59
2401;BME280;1211;43.200;27.914;2023-04-27T03:02:45;100621.47;;;13.60;84.44
2401;BME280;1211;43.200;27.914;2023-04-27T03:05:11;100614.38;;;13.47;83.67
2401;BME280;1211;43.200;27.914;2023-04-27T03:07:39;100632.00;;;13.54;83.86
2401;BME280;1211;43.200;27.914;2023-04-27T03:10:06;100642.97;;;13.39;83.05
2401;BME280;1211;43.200;27.914;2023-04-27T03:12:33;100621.06;;;13.46;82.72
2401;BME280;1211;43.200;27.914;2023-04-27T03:15:00;100655.63;;;13.64;82.07
2401;BME280;1211;43.200;27.914;2023-04-27T03:17:28;100646.22;;;13.41;81.91
2401;BME280;1211;43.200;27.914;2023-04-27T03:19:55;100668.06;;;13.70;81.32
2401;BME280;1211;43.200;27.914;2023-04-27T03:22:34;100682.88;;;14.18;79.94
2401;BME280;1211;43.200;27.914;2023-04-27T03:25:02;100665.81;;;13.88;80.45
2401;BME280;1211;43.200;27.914;2023-04-27T03:27:29;100706.38;;;14.24;79.87
2401;BME280;1211;43.200;27.914;2023-04-27T03:29:56;100689.81;;;13.84;81.01
2401;BME280;1211;43.200;27.914;2023-04-27T03:32:23;100698.03;;;13.68;80.19
2401;BME280;1211;43.200;27.914;2023-04-27T03:34:50;100716.09;;;13.90;81.39
2401;BME280;1211;43.200;27.914;2023-04-27T03:37:17;100704.50;;;13.60;81.81
2401;BME280;1211;43.200;27.914;2023-04-27T03:39:44;100717.13;;;13.97;80.06
2401;BME280;1211;43.200;27.914;2023-04-27T03:42:12;100725.22;;;14.18;79.80
2401;BME280;1211;43.200;27.914;2023-04-27T03:44:38;100716.81;;;14.15;79.17
2401;BME280;1211;43.200;27.914;2023-04-27T03:47:05;100732.03;;;13.93;79.22
2401;BME280;1211;43.200;27.914;2023-04-27T03:49:33;100738.25;;;13.90;81.41
2401;BME280;1211;43.200;27.914;2023-04-27T03:52:00;100751.09;;;13.70;81.49
2401;BME280;1211;43.200;27.914;2023-04-27T03:54:27;100746.56;;;13.78;81.81
2401;BME280;1211;43.200;27.914;2023-04-27T03:56:54;100731.22;;;13.80;81.36
2401;BME280;1211;43.200;27.914;2023-04-27T03:59:22;100739.56;;;14.08;80.87
2401;BME280;1211;43.200;27.914;2023-04-27T04:01:49;100742.69;;;14.07;80.64
2401;BME280;1211;43.200;27.914;2023-04-27T04:04:15;100739.03;;;13.90;80.24
2401;BME280;1211;43.200;27.914;2023-04-27T04:06:42;100753.78;;;14.07;80.91
2401;BME280;1211;43.200;27.914;2023-04-27T04:09:09;100761.34;;;14.22;79.08
2401;BME280;1211;43.200;27.914;2023-04-27T04:11:36;100761.28;;;14.46;78.19
2401;BME280;1211;43.200;27.914;2023-04-27T04:14:03;100757.91;;;14.13;78.15
2401;BME280;1211;43.200;27.914;2023-04-27T04:16:31;100748.59;;;14.45;77.84
2401;BME280;1211;43.200;27.914;2023-04-27T04:18:58;100752.97;;;14.46;77.33
2401;BME280;1211;43.200;27.914;2023-04-27T04:21:25;100755.41;;;14.91;76.63
2401;BME280;1211;43.200;27.914;2023-04-27T04:23:51;100740.94;;;14.54;76.13
2401;BME280;1211;43.200;27.914;2023-04-27T04:26:18;100744.38;;;14.79;75.74
2401;BME280;1211;43.200;27.914;2023-04-27T04:28:47;100727.78;;;14.11;76.58
2401;BME280;1211;43.200;27.914;2023-04-27T04:31:14;100736.50;;;14.37;76.83
2401;BME280;1211;43.200;27.914;2023-04-27T04:33:43;100752.41;;;14.40;76.57
2401;BME280;1211;43.200;27.914;2023-04-27T04:36:10;100751.16;;;13.98;78.02
2401;BME280;1211;43.200;27.914;2023-04-27T04:38:37;100744.50;;;14.55;76.54
2401;BME280;1211;43.200;27.914;2023-04-27T04:41:04;100724.34;;;14.42;75.25
2401;BME280;1211;43.200;27.914;2023-04-27T04:43:31;100748.69;;;14.49;76.74
2401;BME280;1211;43.200;27.914;2023-04-27T04:45:58;100752.09;;;14.86;74.69
2401;BME280;1211;43.200;27.914;2023-04-27T04:48:25;100759.06;;;14.79;74.51
2401;BME280;1211;43.200;27.914;2023-04-27T04:50:54;100768.41;;;14.75;73.60
2401;BME280;1211;43.200;27.914;2023-04-27T04:53:21;100774.06;;;14.78;73.58
2401;BME280;1211;43.200;27.914;2023-04-27T04:55:48;100778.25;;;14.72;74.16
2401;BME280;1211;43.200;27.914;2023-04-27T04:58:14;100779.81;;;14.86;73.26
2401;BME280;1211;43.200;27.914;2023-04-27T05:00:41;100778.84;;;15.09;72.75
2401;BME280;1211;43.200;27.914;2023-04-27T05:03:08;100778.53;;;14.67;72.98
2401;BME280;1211;43.200;27.914;2023-04-27T05:05:35;100778.69;;;14.74;74.17
2401;BME280;1211;43.200;27.914;2023-04-27T05:08:03;100794.59;;;14.62;73.79
2401;BME280;1211;43.200;27.914;2023-04-27T05:10:30;100790.03;;;15.13;73.23
2401;BME280;1211;43.200;27.914;2023-04-27T05:12:57;100813.19;;;15.05;72.78
2401;BME280;1211;43.200;27.914;2023-04-27T05:15:23;100825.13;;;15.21;72.97
2401;BME280;1211;43.200;27.914;2023-04-27T05:17:50;100825.91;;;14.90;72.74
2401;BME280;1211;43.200;27.914;2023-04-27T05:20:18;100823.53;;;14.36;74.40
2401;BME280;1211;43.200;27.914;2023-04-27T05:22:44;100836.88;;;15.14;73.44
2401;BME280;1211;43.200;27.914;2023-04-27T05:25:13;100831.66;;;15.13;72.98
2401;BME280;1211;43.200;27.914;2023-04-27T05:27:40;100841.53;;;15.26;73.38
2401;BME280;1211;43.200;27.914;2023-04-27T05:30:07;100835.50;;;15.08;74.07
2401;BME280;1211;43.200;27.914;2023-04-27T05:32:34;100846.00;;;15.46;73.88
2401;BME280;1211;43.200;27.914;2023-04-27T05:35:02;100842.50;;;15.49;72.84
2401;BME280;1211;43.200;27.914;2023-04-27T05:37:29;100838.16;;;15.64;72.88
2401;BME280;1211;43.200;27.914;2023-04-27T05:39:56;100866.00;;;15.68;72.01
2401;BME280;1211;43.200;27.914;2023-04-27T05:42:24;100863.19;;;14.65;75.22
2401;BME280;1211;43.200;27.914;2023-04-27T05:44:50;100852.50;;;14.51;74.97
2401;BME280;1211;43.200;27.914;2023-04-27T05:47:17;100862.63;;;14.59;75.13
2401;BME280;1211;43.200;27.914;2023-04-27T05:49:48;100863.31;;;14.96;74.41
2401;BME280;1211;43.200;27.914;2023-04-27T05:52:15;100859.56;;;15.63;71.85
2401;BME280;1211;43.200;27.914;2023-04-27T05:54:44;100859.75;;;15.71;71.89
2401;BME280;1211;43.200;27.914;2023-04-27T05:57:11;100879.97;;;15.87;71.24
2401;BME280;1211;43.200;27.914;2023-04-27T05:59:39;100878.41;;;16.56;70.82
2401;BME280;1211;43.200;27.914;2023-04-27T06:02:06;100897.69;;;16.14;69.01
2401;BME280;1211;43.200;27.914;2023-04-27T06:04:33;100885.44;;;15.99;69.03
2401;BME280;1211;43.200;27.914;2023-04-27T06:07:00;100895.50;;;15.44;71.72
2401;BME280;1211;43.200;27.914;2023-04-27T06:09:28;100894.47;;;15.05;73.95
2401;BME280;1211;43.200;27.914;2023-04-27T06:11:55;100894.16;;;15.66;74.17
2401;BME280;1211;43.200;27.914;2023-04-27T06:14:23;100912.59;;;15.90;70.74
2401;BME280;1211;43.200;27.914;2023-04-27T06:16:52;100894.38;;;15.61;69.57
2401;BME280;1211;43.200;27.914;2023-04-27T06:19:18;100890.03;;;16.26;68.27
2401;BME280;1211;43.200;27.914;2023-04-27T06:21:45;100894.09;;;16.83;66.87
2401;BME280;1211;43.200;27.914;2023-04-27T06:24:12;100899.88;;;17.55;65.11
2401;BME280;1211;43.200;27.914;2023-04-27T06:26:38;100910.34;;;17.39;63.12
2401;BME280;1211;43.200;27.914;2023-04-27T06:29:05;100915.19;;;17.64;62.25
2401;BME280;1211;43.200;27.914;2023-04-27T06:31:32;100917.84;;;17.80;61.35
2401;BME280;1211;43.200;27.914;2023-04-27T06:34:01;100918.31;;;18.31;59.05
2401;BME280;1211;43.200;27.914;2023-04-27T06:36:27;100915.25;;;17.68;60.32
2401;BME280;1211;43.200;27.914;2023-04-27T06:38:56;100928.13;;;18.48;59.43
2401;BME280;1211;43.200;27.914;2023-04-27T06:41:37;100924.47;;;19.37;55.95
2401;BME280;1211;43.200;27.914;2023-04-27T06:44:08;100934.59;;;19.12;54.17
2401;BME280;1211;43.200;27.914;2023-04-27T06:46:35;100924.56;;;18.77;54.85
2401;BME280;1211;43.200;27.914;2023-04-27T06:49:03;100923.06;;;19.94;53.77
2401;BME280;1211;43.200;27.914;2023-04-27T06:51:30;100924.16;;;19.83;51.09
2401;BME280;1211;43.200;27.914;2023-04-27T06:53:57;100919.06;;;19.92;51.54
2401;BME280;1211;43.200;27.914;2023-04-27T06:56:23;100917.28;;;19.36;52.71
2401;BME280;1211;43.200;27.914;2023-04-27T06:58:50;100927.91;;;20.48;51.14
2401;BME280;1211;43.200;27.914;2023-04-27T07:01:17;100940.25;;;20.40;49.95
2401;BME280;1211;43.200;27.914;2023-04-27T07:03:44;100938.03;;;19.35;51.00
2401;BME280;1211;43.200;27.914;2023-04-27T07:06:12;100938.09;;;19.05;50.64
2401;BME280;1211;43.200;27.914;2023-04-27T07:08:39;100931.03;;;19.15;50.48
2401;BME280;1211;43.200;27.914;2023-04-27T07:11:06;100931.69;;;19.05;51.40
2401;BME280;1211;43.200;27.914;2023-04-27T07:13:32;100937.78;;;19.47;51.27
2401;BME280;1211;43.200;27.914;2023-04-27T07:15:59;100924.78;;;18.39;53.93
2401;BME280;1211;43.200;27.914;2023-04-27T07:18:25;100925.34;;;19.08;52.23
2401;BME280;1211;43.200;27.914;2023-04-27T07:20:53;100926.72;;;19.24;51.70
2401;BME280;1211;43.200;27.914;2023-04-27T07:23:21;100919.34;;;19.06;51.74
2401;BME280;1211;43.200;27.914;2023-04-27T07:25:48;100930.31;;;19.25;51.69
2401;BME280;1211;43.200;27.914;2023-04-27T07:28:15;100926.06;;;19.34;50.87
2401;BME280;1211;43.200;27.914;2023-04-27T07:30:41;100921.25;;;20.16;49.62
2401;BME280;1211;43.200;27.914;2023-04-27T07:33:08;100917.78;;;21.02;48.29
2401;BME280;1211;43.200;27.914;2023-04-27T07:35:35;100912.41;;;20.65;47.04
2401;BME280;1211;43.200;27.914;2023-04-27T07:38:02;100909.25;;;21.99;45.98
2401;BME280;1211;43.200;27.914;2023-04-27T07:40:30;100910.16;;;23.19;44.56
2401;BME280;1211;43.200;27.914;2023-04-27T07:42:58;100903.38;;;23.06;43.26
2401;BME280;1211;43.200;27.914;2023-04-27T07:45:25;100919.44;;;23.81;41.98
2401;BME280;1211;43.200;27.914;2023-04-27T07:47:56;100905.25;;;23.37;41.19
2401;BME280;1211;43.200;27.914;2023-04-27T07:50:24;100911.22;;;23.46;40.64
2401;BME280;1211;43.200;27.914;2023-04-27T07:52:51;100899.81;;;21.10;42.94
2401;BME280;1211;43.200;27.914;2023-04-27T07:58:32;100902.59;;;24.26;39.68
2401;BME280;1211;43.200;27.914;2023-04-27T08:00:58;100896.28;;;24.52;37.73
2401;BME280;1211;43.200;27.914;2023-04-27T08:03:25;100893.84;;;24.10;38.63
2401;BME280;1211;43.200;27.914;2023-04-27T08:05:52;100912.69;;;24.61;37.79
2401;BME280;1211;43.200;27.914;2023-04-27T08:08:19;100902.19;;;23.76;38.26
2401;BME280;1211;43.200;27.914;2023-04-27T08:10:45;100916.81;;;23.53;38.35
2401;BME280;1211;43.200;27.914;2023-04-27T08:13:12;100911.63;;;22.33;37.91
2401;BME280;1211;43.200;27.914;2023-04-27T08:15:40;100891.38;;;23.02;37.99
2401;BME280;1211;43.200;27.914;2023-04-27T08:18:07;100910.66;;;24.99;36.17
2401;BME280;1211;43.200;27.914;2023-04-27T08:20:33;100884.78;;;23.29;38.08
2401;BME280;1211;43.200;27.914;2023-04-27T08:23:00;100900.06;;;23.28;36.86
2401;BME280;1211;43.200;27.914;2023-04-27T08:25:27;100896.78;;;21.86;39.32
2401;BME280;1211;43.200;27.914;2023-04-27T08:27:54;100907.44;;;22.97;37.78
2401;BME280;1211;43.200;27.914;2023-04-27T08:30:20;100915.78;;;23.85;37.55
2401;BME280;1211;43.200;27.914;2023-04-27T08:32:58;100904.00;;;22.23;38.96
2401;BME280;1211;43.200;27.914;2023-04-27T08:35:25;100914.31;;;23.62;37.58
2401;BME280;1211;43.200;27.914;2023-04-27T08:37:51;100917.91;;;24.21;36.78
2401;BME280;1211;43.200;27.914;2023-04-27T08:40:19;100923.81;;;24.75;35.98
2401;BME280;1211;43.200;27.914;2023-04-27T08:42:52;100904.97;;;23.10;36.50
2401;BME280;1211;43.200;27.914;2023-04-27T08:47:49;100910.34;;;22.55;38.40
2401;BME280;1211;43.200;27.914;2023-04-27T08:50:23;100920.09;;;24.44;36.76
2401;BME280;1211;43.200;27.914;2023-04-27T08:52:51;100905.91;;;24.92;34.76
2401;BME280;1211;43.200;27.914;2023-04-27T08:55:18;100915.22;;;26.70;33.14
2401;BME280;1211;43.200;27.914;2023-04-27T08:57:55;100921.78;;;27.78;32.01
2401;BME280;1211;43.200;27.914;2023-04-27T09:00:22;100915.94;;;26.54;33.21
2401;BME280;1211;43.200;27.914;2023-04-27T09:02:49;100919.56;;;27.70;32.25
2401;BME280;1211;43.200;27.914;2023-04-27T09:05:16;100928.78;;;25.59;32.69
2401;BME280;1211;43.200;27.914;2023-04-27T09:07:55;100929.97;;;21.42;37.87
2401;BME280;1211;43.200;27.914;2023-04-27T09:10:22;100921.25;;;22.03;38.01
2401;BME280;1211;43.200;27.914;2023-04-27T09:12:55;100927.28;;;22.16;37.78
2401;BME280;1211;43.200;27.914;2023-04-27T09:15:22;100954.34;;;27.86;33.81
2401;BME280;1211;43.200;27.914;2023-04-27T09:17:52;100938.78;;;26.83;32.61
2401;BME280;1211;43.200;27.914;2023-04-27T09:20:21;100944.34;;;27.82;31.41
2401;BME280;1211;43.200;27.914;2023-04-27T09:22:49;100961.06;;;27.76;32.47
2401;BME280;1211;43.200;27.914;2023-04-27T09:25:25;100944.72;;;26.22;32.17
2401;BME280;1211;43.200;27.914;2023-04-27T09:27:52;100950.63;;;27.18;32.28
2401;BME280;1211;43.200;27.914;2023-04-27T09:30:19;100943.00;;;24.84;33.36
2401;BME280;1211;43.200;27.914;2023-04-27T09:32:52;100935.88;;;26.44;33.60
2401;BME280;1211;43.200;27.914;2023-04-27T09:35:20;100955.00;;;28.43;30.58
2401;BME280;1211;43.200;27.914;2023-04-27T09:37:48;100957.53;;;28.05;30.27
2401;BME280;1211;43.200;27.914;2023-04-27T09:40:16;100961.03;;;28.90;29.98
2401;BME280;1211;43.200;27.914;2023-04-27T09:42:45;100956.69;;;29.27;28.72
2401;BME280;1211;43.200;27.914;2023-04-27T09:45:12;100952.63;;;29.28;29.27
2401;BME280;1211;43.200;27.914;2023-04-27T09:47:39;100949.75;;;29.69;29.04
2401;BME280;1211;43.200;27.914;2023-04-27T09:50:07;100943.50;;;29.07;29.03
2401;BME280;1211;43.200;27.914;2023-04-27T09:52:35;100951.69;;;29.60;29.33
2401;BME280;1211;43.200;27.914;2023-04-27T09:55:02;100959.66;;;29.23;29.25
2401;BME280;1211;43.200;27.914;2023-04-27T09:57:33;100951.38;;;27.38;30.82
2401;BME280;1211;43.200;27.914;2023-04-27T10:00:08;100954.56;;;27.60;31.04
2401;BME280;1211;43.200;27.914;2023-04-27T10:02:41;100955.94;;;27.87;30.49
2401;BME280;1211;43.200;27.914;2023-04-27T10:05:29;100945.66;;;28.58;30.19
2401;BME280;1211;43.200;27.914;2023-04-27T10:08:01;100937.97;;;28.43;30.12
2401;BME280;1211;43.200;27.914;2023-04-27T10:10:29;100957.56;;;28.37;29.74
2401;BME280;1211;43.200;27.914;2023-04-27T10:12:56;100936.13;;;28.04;30.57
2401;BME280;1211;43.200;27.914;2023-04-27T10:15:27;100936.31;;;27.80;30.48
2401;BME280;1211;43.200;27.914;2023-04-27T10:17:54;100949.59;;;27.28;31.24
2401;BME280;1211;43.200;27.914;2023-04-27T10:20:29;100940.72;;;27.98;30.62
2401;BME280;1211;43.200;27.914;2023-04-27T10:22:57;100933.47;;;27.80;30.59
2401;BME280;1211;43.200;27.914;2023-04-27T10:25:24;100942.63;;;27.13;31.26
2401;BME280;1211;43.200;27.914;2023-04-27T10:27:53;100922.69;;;27.75;30.31
2401;BME280;1211;43.200;27.914;2023-04-27T10:30:20;100940.97;;;27.15;31.29
2401;BME280;1211;43.200;27.914;2023-04-27T10:32:53;100932.56;;;27.67;31.12
2401;BME280;1211;43.200;27.914;2023-04-27T10:35:21;100922.56;;;27.43;31.36
2401;BME280;1211;43.200;27.914;2023-04-27T10:37:48;100943.03;;;26.29;31.94
2401;BME280;1211;43.200;27.914;2023-04-27T10:40:16;100938.75;;;25.94;31.99
2401;BME280;1211;43.200;27.914;2023-04-27T10:42:43;100931.88;;;26.84;31.58
2401;BME280;1211;43.200;27.914;2023-04-27T10:45:10;100929.41;;;26.66;31.56
2401;BME280;1211;43.200;27.914;2023-04-27T10:47:38;100921.38;;;25.95;32.91
2401;BME280;1211;43.200;27.914;2023-04-27T10:50:07;100929.13;;;25.64;33.23
2401;BME280;1211;43.200;27.914;2023-04-27T10:52:35;100929.47;;;25.93;32.62
2401;BME280;1211;43.200;27.914;2023-04-27T10:55:14;100924.25;;;25.68;33.00
2401;BME280;1211;43.200;27.914;2023-04-27T10:57:44;100930.00;;;25.58;33.45
2401;BME280;1211;43.200;27.914;2023-04-27T11:00:11;100923.22;;;24.53;34.13
2401;BME280;1211;43.200;27.914;2023-04-27T11:02:39;100927.09;;;24.67;34.50
2401;BME280;1211;43.200;27.914;2023-04-27T11:05:16;100924.22;;;24.74;34.51
2401;BME280;1211;43.200;27.914;2023-04-27T11:07:43;100902.88;;;25.10;34.29
2401;BME280;1211;43.200;27.914;2023-04-27T11:10:13;100927.69;;;24.88;34.41
2401;BME280;1211;43.200;27.914;2023-04-27T11:12:40;100929.91;;;24.67;34.10
2401;BME280;1211;43.200;27.914;2023-04-27T11:15:07;100906.16;;;24.68;34.38
2401;BME280;1211;43.200;27.914;2023-04-27T11:17:34;100919.72;;;24.80;35.06
2401;BME280;1211;43.200;27.914;2023-04-27T11:20:01;100914.75;;;24.57;34.29
2401;BME280;1211;43.200;27.914;2023-04-27T11:22:30;100906.25;;;23.68;35.84
2401;BME280;1211;43.200;27.914;2023-04-27T11:24:57;100912.94;;;24.36;34.57
2401;BME280;1211;43.200;27.914;2023-04-27T11:27:23;100908.56;;;24.32;35.00
2401;BME280;1211;43.200;27.914;2023-04-27T11:30:01;100892.72;;;24.04;34.83
2401;BME280;1211;43.200;27.914;2023-04-27T11:32:28;100913.09;;;24.22;35.60
2401;BME280;1211;43.200;27.914;2023-04-27T11:34:54;100924.28;;;24.29;35.40
2401;BME280;1211;43.200;27.914;2023-04-27T11:37:21;100910.28;;;23.70;35.08
2401;BME280;1211;43.200;27.914;2023-04-27T11:39:51;100913.00;;;23.12;35.98
2401;BME280;1211;43.200;27.914;2023-04-27T11:42:19;100905.78;;;23.07;36.30
2401;BME280;1211;43.200;27.914;2023-04-27T11:44:51;100913.16;;;23.60;35.84
2401;BME280;1211;43.200;27.914;2023-04-27T11:47:18;100914.63;;;24.30;35.60
2401;BME280;1211;43.200;27.914;2023-04-27T11:49:47;100909.06;;;24.60;35.05
2401;BME280;1211;43.200;27.914;2023-04-27T11:52:13;100919.25;;;24.85;34.87
2401;BME280;1211;43.200;27.914;2023-04-27T11:54:45;100911.59;;;24.51;34.71
2401;BME280;1211;43.200;27.914;2023-04-27T11:57:13;100922.84;;;24.07;34.97
2401;BME280;1211;43.200;27.914;2023-04-27T11:59:40;100913.56;;;24.54;34.72
2401;BME280;1211;43.200;27.914;2023-04-27T12:02:07;100922.31;;;23.71;35.41
2401;BME280;1211;43.200;27.914;2023-04-27T12:04:34;100928.69;;;22.98;35.94
2401;BME280;1211;43.200;27.914;2023-04-27T12:07:01;100929.88;;;23.05;35.76
2401;BME280;1211;43.200;27.914;2023-04-27T12:09:28;100927.63;;;22.57;36.07
2401;BME280;1211;43.200;27.914;2023-04-27T12:11:55;100918.00;;;22.44;36.08
2401;BME280;1211;43.200;27.914;2023-04-27T12:14:23;100913.97;;;22.55;36.16
2401;BME280;1211;43.200;27.914;2023-04-27T12:16:50;100915.56;;;22.67;36.46
2401;BME280;1211;43.200;27.914;2023-04-27T12:19:17;100911.03;;;23.02;35.97
2401;BME280;1211;43.200;27.914;2023-04-27T12:21:43;100913.13;;;22.83;36.61
2401;BME280;1211;43.200;27.914;2023-04-27T12:24:10;100926.16;;;23.95;35.76
2401;BME280;1211;43.200;27.914;2023-04-27T12:26:37;100925.22;;;24.08;34.70
2401;BME280;1211;43.200;27.914;2023-04-27T12:29:04;100921.13;;;24.24;35.00
2401;BME280;1211;43.200;27.914;2023-04-27T12:31:34;100918.56;;;24.36;34.91
2401;BME280;1211;43.200;27.914;2023-04-27T12:34:02;100924.88;;;24.51;34.86
2401;BME280;1211;43.200;27.914;2023-04-27T12:36:29;100918.75;;;23.67;36.06
2401;BME280;1211;43.200;27.914;2023-04-27T12:38:57;100920.09;;;23.34;36.26
2401;BME280;1211;43.200;27.914;2023-04-27T12:41:24;100930.41;;;23.65;36.24
2401;BME280;1211;43.200;27.914;2023-04-27T12:43:50;100930.63;;;23.16;36.51
2401;BME280;1211;43.200;27.914;2023-04-27T12:46:17;100929.97;;;22.76;36.81
2401;BME280;1211;43.200;27.914;2023-04-27T12:48:45;100925.19;;;22.73;37.20
2401;BME280;1211;43.200;27.914;2023-04-27T12:51:12;100933.84;;;23.18;36.97
2401;BME280;1211;43.200;27.914;2023-04-27T12:53:38;100929.59;;;22.67;37.25
2401;BME280;1211;43.200;27.914;2023-04-27T12:56:06;100920.41;;;22.49;36.59
2401;BME280;1211;43.200;27.914;2023-04-27T12:58:33;100938.44;;;22.73;37.45
2401;BME280;1211;43.200;27.914;2023-04-27T13:01:00;100946.47;;;23.61;36.30
2401;BME280;1211;43.200;27.914;2023-04-27T13:03:26;100929.56;;;23.68;36.21
2401;BME280;1211;43.200;27.914;2023-04-27T13:05:54;100948.94;;;23.45;35.91
2401;BME280;1211;43.200;27.914;2023-04-27T13:08:21;100950.59;;;23.39;36.11